createdAt,value
2017-03-31T00:02:02.128Z,1020.350
2017-03-31T00:05:07.702Z,1020.337
2017-03-31T00:08:13.447Z,1020.320
2017-03-31T00:11:18.991Z,1020.291
2017-03-31T00:14:24.732Z,1020.277
2017-03-31T00:17:36.430Z,1020.298
2017-03-31T00:20:35.489Z,1020.301
2017-03-31T00:26:47.229Z,1020.243
2017-03-31T00:29:52.575Z,1020.237
2017-03-31T00:32:58.299Z,1020.210
2017-03-31T00:36:03.758Z,1020.130
2017-03-31T00:39:09.431Z,1020.104
2017-03-31T00:42:14.841Z,1020.077
2017-03-31T00:45:20.521Z,1020.064
2017-03-31T00:48:26.235Z,1020.060
2017-03-31T00:51:31.682Z,1020.049
2017-03-31T00:54:43.324Z,1020.013
2017-03-31T00:57:42.207Z,1019.977
2017-03-31T01:00:47.876Z,1019.916
2017-03-31T01:03:53.562Z,1019.864
2017-03-31T01:06:59.150Z,1019.821
2017-03-31T01:10:04.619Z,1019.824
2017-03-31T01:13:10.176Z,1019.737
2017-03-31T01:16:15.522Z,1019.705
2017-03-31T01:19:21.117Z,1019.688
2017-03-31T01:22:26.233Z,1019.643
2017-03-31T01:25:31.984Z,1019.597
2017-03-31T01:31:43.745Z,1019.549
2017-03-31T01:34:49.411Z,1019.517
2017-03-31T01:37:55.054Z,1019.490
2017-03-31T01:41:00.642Z,1019.471
2017-03-31T01:44:05.971Z,1019.429
2017-03-31T01:47:11.555Z,1019.429
2017-03-31T01:50:17.222Z,1019.383
2017-03-31T01:53:22.936Z,1019.322
2017-03-31T01:56:28.299Z,1019.294
2017-03-31T01:59:34.011Z,1019.290
2017-03-31T02:02:39.483Z,1019.282
2017-03-31T02:05:45.220Z,1019.265
2017-03-31T02:08:50.749Z,1019.253
2017-03-31T02:11:56.416Z,1019.222
2017-03-31T02:15:02.066Z,1019.194
2017-03-31T02:18:07.737Z,1019.175
2017-03-31T02:21:13.401Z,1019.124
2017-03-31T02:24:19.028Z,1019.115
2017-03-31T02:27:24.595Z,1019.086
2017-03-31T02:30:30.285Z,1019.060
2017-03-31T02:33:35.337Z,1019.061
2017-03-31T02:39:46.984Z,1018.993
2017-03-31T02:42:52.352Z,1018.911
2017-03-31T02:45:57.889Z,1018.873
2017-03-31T02:49:02.877Z,1018.876
2017-03-31T02:52:08.320Z,1018.884
2017-03-31T02:55:13.746Z,1018.863
2017-03-31T02:58:19.292Z,1018.861
2017-03-31T03:01:24.748Z,1018.848
2017-03-31T03:04:30.420Z,1018.866
2017-03-31T03:07:36.012Z,1018.864
2017-03-31T03:10:41.532Z,1018.824
2017-03-31T03:19:56.351Z,1018.794
2017-03-31T03:23:01.922Z,1018.784
2017-03-31T03:26:07.659Z,1018.781
2017-03-31T03:29:13.112Z,1018.732
2017-03-31T03:32:18.576Z,1018.729
2017-03-31T03:35:23.761Z,1018.676
2017-03-31T03:38:29.357Z,1018.652
2017-03-31T03:41:34.824Z,1018.630
2017-03-31T03:44:40.290Z,1018.646
2017-03-31T03:47:45.936Z,1018.647
2017-03-31T03:50:51.599Z,1018.617
2017-03-31T03:54:03.238Z,1018.623
2017-03-31T03:57:02.095Z,1018.616
2017-03-31T04:00:07.502Z,1018.625
2017-03-31T04:03:12.826Z,1018.597
2017-03-31T04:06:18.303Z,1018.557
2017-03-31T04:09:23.909Z,1018.524
2017-03-31T04:12:29.441Z,1018.463
2017-03-31T04:15:34.863Z,1018.443
2017-03-31T04:18:40.411Z,1018.425
2017-03-31T04:21:46.012Z,1018.397
2017-03-31T04:24:51.528Z,1018.387
2017-03-31T04:27:57.125Z,1018.398
2017-03-31T04:31:02.709Z,1018.421
2017-03-31T04:34:08.295Z,1018.428
2017-03-31T04:37:13.720Z,1018.427
2017-03-31T04:40:19.310Z,1018.423
2017-03-31T04:43:24.521Z,1018.414
2017-03-31T04:46:29.944Z,1018.410
2017-03-31T04:49:35.401Z,1018.409
2017-03-31T04:52:40.978Z,1018.415
2017-03-31T04:55:46.033Z,1018.427
2017-03-31T04:58:51.581Z,1018.396
2017-03-31T05:01:57.071Z,1018.381
2017-03-31T05:05:02.253Z,1018.394
2017-03-31T05:08:07.473Z,1018.412
2017-03-31T05:11:12.805Z,1018.454
2017-03-31T05:14:18.252Z,1018.420
2017-03-31T05:17:23.880Z,1018.407
2017-03-31T05:20:29.521Z,1018.392
2017-03-31T05:23:35.048Z,1018.404
2017-03-31T05:26:40.586Z,1018.407
2017-03-31T05:29:46.136Z,1018.425
2017-03-31T05:32:51.626Z,1018.422
2017-03-31T05:35:57.217Z,1018.425
2017-03-31T05:39:02.666Z,1018.396
2017-03-31T05:42:08.637Z,1018.389
2017-03-31T05:45:14.163Z,1018.404
2017-03-31T05:48:19.737Z,1018.425
2017-03-31T05:54:31.159Z,1018.435
2017-03-31T05:57:36.812Z,1018.459
2017-03-31T06:00:37.292Z,1018.413
2017-03-31T06:03:47.992Z,1018.381
2017-03-31T06:06:53.541Z,1018.341
2017-03-31T06:13:05.400Z,1018.315
2017-03-31T06:16:11.059Z,1018.273
2017-03-31T06:19:16.671Z,1018.220
2017-03-31T06:22:22.219Z,1018.202
2017-03-31T06:25:27.869Z,1018.211
2017-03-31T06:28:33.299Z,1018.199
2017-03-31T06:31:38.981Z,1018.175
2017-03-31T06:34:44.288Z,1018.210
2017-03-31T06:37:49.961Z,1018.198
2017-03-31T06:40:55.513Z,1018.181
2017-03-31T06:44:00.236Z,1018.132
2017-03-31T06:47:05.913Z,1018.089
2017-03-31T06:50:11.546Z,1018.071
2017-03-31T06:53:17.141Z,1018.090
2017-03-31T06:56:22.771Z,1018.091
2017-03-31T06:59:28.503Z,1018.095
2017-03-31T07:02:34.182Z,1018.084
2017-03-31T07:05:39.959Z,1018.131
2017-03-31T07:08:45.664Z,1018.120
2017-03-31T07:11:51.271Z,1018.131
2017-03-31T07:14:56.833Z,1018.111
2017-03-31T07:18:02.532Z,1018.083
2017-03-31T07:21:08.038Z,1018.046
2017-03-31T07:24:13.773Z,1018.018
2017-03-31T07:27:19.064Z,1018.019
2017-03-31T07:30:24.625Z,1018.033
2017-03-31T07:33:30.436Z,1018.021
2017-03-31T07:36:36.096Z,1017.976
2017-03-31T07:39:41.618Z,1017.941
2017-03-31T07:42:47.336Z,1017.937
2017-03-31T07:45:53.107Z,1017.898
2017-03-31T07:52:04.752Z,1017.857
2017-03-31T07:55:10.634Z,1017.828
2017-03-31T07:58:16.510Z,1017.816
2017-03-31T08:01:22.335Z,1017.770
2017-03-31T08:07:33.597Z,1017.688
2017-03-31T08:10:38.892Z,1017.675
2017-03-31T08:13:44.584Z,1017.674
2017-03-31T08:16:50.171Z,1017.610
2017-03-31T08:19:55.990Z,1017.602
2017-03-31T08:23:01.755Z,1017.548
2017-03-31T08:26:07.463Z,1017.534
2017-03-31T08:29:13.335Z,1017.509
2017-03-31T08:32:19.127Z,1017.493
2017-03-31T08:35:24.909Z,1017.461
2017-03-31T08:38:30.536Z,1017.406
2017-03-31T08:41:35.943Z,1017.398
2017-03-31T08:44:41.585Z,1017.369
2017-03-31T08:47:47.253Z,1017.322
2017-03-31T08:50:53.130Z,1017.261
2017-03-31T08:53:58.934Z,1017.233
2017-03-31T08:57:04.841Z,1017.197
2017-03-31T09:00:10.454Z,1017.162
2017-03-31T09:03:16.254Z,1017.097
2017-03-31T09:06:22.056Z,1017.067
2017-03-31T09:09:27.904Z,1017.014
2017-03-31T09:15:40.089Z,1016.823
2017-03-31T09:18:45.996Z,1016.767
2017-03-31T09:21:52.036Z,1016.760
2017-03-31T09:24:58.030Z,1016.787
2017-03-31T09:28:03.345Z,1016.776
2017-03-31T09:31:09.266Z,1016.718
2017-03-31T09:34:15.080Z,1016.710
2017-03-31T09:37:20.977Z,1016.660
2017-03-31T09:40:26.546Z,1016.655
2017-03-31T09:43:32.437Z,1016.633
2017-03-31T09:46:38.439Z,1016.589
2017-03-31T09:49:44.277Z,1016.495
2017-03-31T09:52:50.203Z,1016.534
2017-03-31T09:55:56.271Z,1016.523
2017-03-31T09:58:57.257Z,1016.440
2017-03-31T10:02:08.640Z,1016.340
2017-03-31T10:05:14.586Z,1016.330
2017-03-31T10:08:20.249Z,1016.278
2017-03-31T10:11:26.379Z,1016.198
2017-03-31T10:14:32.337Z,1016.101
2017-03-31T10:17:38.475Z,1016.011
2017-03-31T10:20:44.215Z,1015.981
2017-03-31T10:23:50.269Z,1015.851
2017-03-31T10:26:56.249Z,1015.797
2017-03-31T10:30:02.210Z,1015.719
2017-03-31T10:33:08.285Z,1015.648
2017-03-31T10:36:14.315Z,1015.628
2017-03-31T10:39:20.316Z,1015.589
2017-03-31T10:42:26.477Z,1015.549
2017-03-31T10:45:32.555Z,1015.472
2017-03-31T10:48:38.563Z,1015.468
2017-03-31T10:51:44.606Z,1015.397
2017-03-31T10:54:50.418Z,1015.356
2017-03-31T10:57:56.557Z,1015.350
2017-03-31T11:04:09.779Z,1015.155
2017-03-31T11:07:15.954Z,1015.095
2017-03-31T11:10:22.165Z,1015.055
2017-03-31T11:13:28.231Z,1014.978
2017-03-31T11:16:34.390Z,1014.885
2017-03-31T11:19:40.499Z,1014.857
2017-03-31T11:22:46.798Z,1014.742
2017-03-31T11:25:52.894Z,1014.678
2017-03-31T11:28:59.119Z,1014.638
2017-03-31T11:32:05.392Z,1014.545
2017-03-31T11:35:11.640Z,1014.457
2017-03-31T11:38:17.771Z,1014.371
2017-03-31T11:41:23.997Z,1014.297
2017-03-31T11:44:30.204Z,1014.297
2017-03-31T11:47:42.475Z,1014.254
2017-03-31T11:50:41.782Z,1014.189
2017-03-31T11:53:48.034Z,1014.090
2017-03-31T11:56:54.325Z,1014.033
2017-03-31T12:00:00.487Z,1013.973
2017-03-31T12:03:06.855Z,1013.942
2017-03-31T12:06:13.146Z,1013.899
2017-03-31T12:09:19.359Z,1013.850
2017-03-31T12:12:25.721Z,1013.801
2017-03-31T12:15:31.953Z,1013.816
2017-03-31T12:18:38.112Z,1013.729
2017-03-31T12:21:44.210Z,1013.650
2017-03-31T12:24:50.504Z,1013.622
2017-03-31T12:27:56.717Z,1013.604
2017-03-31T12:31:02.948Z,1013.535
2017-03-31T12:34:09.289Z,1013.479
2017-03-31T12:37:15.548Z,1013.459
2017-03-31T12:40:21.759Z,1013.431
2017-03-31T12:43:28.135Z,1013.402
2017-03-31T12:46:34.148Z,1013.367
2017-03-31T12:49:40.019Z,1013.350
2017-03-31T12:52:46.275Z,1013.283
2017-03-31T12:55:52.114Z,1013.296
2017-03-31T12:58:58.322Z,1013.218
2017-03-31T13:02:04.627Z,1013.175
2017-03-31T13:05:10.861Z,1013.114
2017-03-31T13:08:17.123Z,1013.089
2017-03-31T13:11:23.356Z,1013.060
2017-03-31T13:14:29.485Z,1012.985
2017-03-31T13:17:35.677Z,1012.945
2017-03-31T13:20:42.013Z,1012.883
2017-03-31T13:23:48.092Z,1012.829
2017-03-31T13:26:54.273Z,1012.850
2017-03-31T13:30:00.448Z,1012.788
2017-03-31T13:33:06.650Z,1012.765
2017-03-31T13:36:12.642Z,1012.726
2017-03-31T13:39:18.826Z,1012.705
2017-03-31T13:42:25.066Z,1012.617
2017-03-31T13:48:37.838Z,1012.539
2017-03-31T13:51:44.028Z,1012.491
2017-03-31T13:54:50.278Z,1012.439
2017-03-31T13:57:56.397Z,1012.422
2017-03-31T14:01:02.694Z,1012.406
2017-03-31T14:04:08.671Z,1012.376
2017-03-31T14:07:14.777Z,1012.349
2017-03-31T14:10:20.772Z,1012.325
2017-03-31T14:13:27.001Z,1012.287
2017-03-31T14:16:33.025Z,1012.233
2017-03-31T14:19:39.214Z,1012.175
2017-03-31T14:22:45.852Z,1012.150
2017-03-31T14:25:52.073Z,1012.154
2017-03-31T14:28:58.272Z,1012.145
2017-03-31T14:32:04.261Z,1012.102
2017-03-31T14:35:10.367Z,1012.058
2017-03-31T14:38:16.532Z,1012.052
2017-03-31T14:41:22.698Z,1012.009
2017-03-31T14:44:28.868Z,1011.965
2017-03-31T14:47:35.120Z,1011.951
2017-03-31T14:50:41.219Z,1011.948
2017-03-31T14:53:47.408Z,1011.861
2017-03-31T14:56:53.456Z,1011.792
2017-03-31T14:59:59.632Z,1011.741
2017-03-31T15:03:05.282Z,1011.744
2017-03-31T15:06:11.412Z,1011.649
2017-03-31T15:09:17.583Z,1011.627
2017-03-31T15:12:23.796Z,1011.610
2017-03-31T15:15:30.057Z,1011.549
2017-03-31T15:18:36.306Z,1011.515
2017-03-31T15:21:42.589Z,1011.507
2017-03-31T15:24:48.771Z,1011.489
2017-03-31T15:27:55.009Z,1011.452
2017-03-31T15:31:01.056Z,1011.430
2017-03-31T15:34:07.068Z,1011.386
2017-03-31T15:37:12.998Z,1011.384
2017-03-31T15:40:19.235Z,1011.369
2017-03-31T15:43:25.486Z,1011.332
2017-03-31T15:46:31.858Z,1011.273
2017-03-31T15:49:43.843Z,1011.244
2017-03-31T15:52:44.350Z,1011.201
2017-03-31T15:55:50.601Z,1011.139
2017-03-31T15:58:57.281Z,1011.123
2017-03-31T16:02:03.551Z,1011.129
2017-03-31T16:05:10.838Z,1011.127
2017-03-31T16:08:16.977Z,1011.111
2017-03-31T16:11:22.793Z,1011.126
2017-03-31T16:14:28.922Z,1011.107
2017-03-31T16:17:34.589Z,1011.074
2017-03-31T16:20:40.583Z,1011.081
2017-03-31T16:23:46.709Z,1011.078
2017-03-31T16:26:52.770Z,1011.106
2017-03-31T16:29:58.924Z,1011.096
2017-03-31T16:33:05.462Z,1011.037
2017-03-31T16:36:11.647Z,1011.055
2017-03-31T16:39:17.675Z,1011.101
2017-03-31T16:42:24.296Z,1011.116
2017-03-31T16:45:30.242Z,1011.093
2017-03-31T16:48:36.351Z,1011.101
2017-03-31T16:51:42.165Z,1011.127
2017-03-31T16:54:46.453Z,1011.096
2017-03-31T16:57:52.322Z,1011.064
2017-03-31T17:00:58.442Z,1011.065
2017-03-31T17:04:04.068Z,1011.078
2017-03-31T17:10:12.719Z,1011.132
2017-03-31T17:13:18.712Z,1011.155
2017-03-31T17:16:24.775Z,1011.112
2017-03-31T17:19:30.690Z,1011.099
2017-03-31T17:25:42.506Z,1011.087
2017-03-31T17:28:48.505Z,1011.079
2017-03-31T17:31:54.450Z,1011.080
2017-03-31T17:35:00.532Z,1011.075
2017-03-31T17:38:06.412Z,1011.087
2017-03-31T17:41:12.452Z,1011.086
2017-03-31T17:44:18.438Z,1011.058
2017-03-31T17:47:24.451Z,1011.020
2017-03-31T17:50:30.567Z,1011.001
2017-03-31T17:53:36.215Z,1011.030
2017-03-31T17:56:42.266Z,1011.038
2017-03-31T17:59:48.385Z,1011.044
2017-03-31T18:02:54.375Z,1011.038
2017-03-31T18:06:00.434Z,1011.019
2017-03-31T18:09:06.359Z,1011.017
2017-03-31T18:12:12.196Z,1011.008
2017-03-31T18:15:18.180Z,1011.017
2017-03-31T18:18:24.050Z,1011.014
2017-03-31T18:21:30.058Z,1010.981
2017-03-31T18:24:35.897Z,1011.013
2017-03-31T18:27:41.864Z,1011.039
2017-03-31T18:30:47.624Z,1011.020
2017-03-31T18:33:53.659Z,1010.994
2017-03-31T18:37:00.039Z,1010.992
2017-03-31T18:40:06.041Z,1010.996
2017-03-31T18:43:12.085Z,1011.018
2017-03-31T18:46:18.069Z,1011.043
2017-03-31T18:49:24.061Z,1011.087
2017-03-31T18:52:29.850Z,1011.098
2017-03-31T18:55:35.917Z,1011.070
2017-03-31T18:58:41.284Z,1011.070
2017-03-31T19:01:47.242Z,1011.077
2017-03-31T19:04:53.025Z,1011.087
2017-03-31T19:07:59.088Z,1011.110
2017-03-31T19:11:05.046Z,1011.125
2017-03-31T19:14:11.028Z,1011.105
2017-03-31T19:17:16.932Z,1011.116
2017-03-31T19:20:23.032Z,1011.097
2017-03-31T19:23:28.806Z,1011.085
2017-03-31T19:26:34.747Z,1011.037
2017-03-31T19:29:40.479Z,1011.031
2017-03-31T19:32:46.405Z,1011.030
2017-03-31T19:38:58.640Z,1010.992
2017-03-31T19:42:04.642Z,1010.973
2017-03-31T19:45:10.509Z,1010.956
2017-03-31T19:48:16.390Z,1010.928
2017-03-31T19:51:21.991Z,1010.918
2017-03-31T19:54:27.982Z,1010.948
2017-03-31T19:57:33.872Z,1010.955
2017-03-31T20:00:39.832Z,1010.917
2017-03-31T20:03:45.497Z,1010.890
2017-03-31T20:06:51.314Z,1010.899
2017-03-31T20:09:57.256Z,1010.899
2017-03-31T20:13:02.921Z,1010.913
2017-03-31T20:16:08.795Z,1010.908
2017-03-31T20:19:14.459Z,1010.884
2017-03-31T20:22:20.119Z,1010.838
2017-03-31T20:25:26.056Z,1010.838
2017-03-31T20:28:31.969Z,1010.867
2017-03-31T20:31:37.767Z,1010.883
2017-03-31T20:34:43.703Z,1010.906
2017-03-31T20:37:49.945Z,1010.923
2017-03-31T20:40:55.823Z,1010.930
2017-03-31T20:44:01.011Z,1010.938
2017-03-31T20:47:06.759Z,1010.914
2017-03-31T20:50:12.510Z,1010.891
2017-03-31T20:53:18.885Z,1010.883
2017-03-31T20:56:24.711Z,1010.843
2017-03-31T20:59:30.345Z,1010.858
2017-03-31T21:02:36.237Z,1010.891
2017-03-31T21:05:41.901Z,1010.848
2017-03-31T21:08:47.916Z,1010.838
2017-03-31T21:11:53.318Z,1010.826
2017-03-31T21:14:59.181Z,1010.856
2017-03-31T21:18:05.111Z,1010.845
2017-03-31T21:21:10.831Z,1010.824
2017-03-31T21:24:16.758Z,1010.810
2017-03-31T21:27:22.569Z,1010.817
2017-03-31T21:30:28.610Z,1010.833
2017-03-31T21:33:34.226Z,1010.841
2017-03-31T21:36:40.100Z,1010.847
2017-03-31T21:39:46.005Z,1010.826
2017-03-31T21:42:51.913Z,1010.827
2017-03-31T21:45:57.603Z,1010.817
2017-03-31T21:49:03.418Z,1010.809
2017-03-31T21:52:09.297Z,1010.820
2017-03-31T21:55:15.114Z,1010.853
2017-03-31T21:58:20.815Z,1010.882
2017-03-31T22:01:26.611Z,1010.885
2017-03-31T22:04:32.361Z,1010.890
2017-03-31T22:07:38.156Z,1010.900
2017-03-31T22:10:44.000Z,1010.893
2017-03-31T22:13:49.782Z,1010.894
2017-03-31T22:16:55.646Z,1010.912
2017-03-31T22:20:01.531Z,1010.934
2017-03-31T22:23:07.433Z,1010.963
2017-03-31T22:26:12.761Z,1010.975
2017-03-31T22:29:18.601Z,1010.977
2017-03-31T22:32:25.067Z,1010.980
2017-03-31T22:35:30.874Z,1011.043
2017-03-31T22:38:36.528Z,1011.017
2017-03-31T22:41:42.263Z,1011.011
2017-03-31T22:44:48.045Z,1011.016
2017-03-31T22:47:53.799Z,1011.008
2017-03-31T22:50:59.697Z,1010.978
2017-03-31T22:54:04.953Z,1010.993
2017-03-31T22:57:10.861Z,1010.971
2017-03-31T23:00:16.640Z,1010.949
2017-03-31T23:03:22.470Z,1010.915
2017-03-31T23:06:27.823Z,1010.922
2017-03-31T23:09:33.797Z,1010.867
2017-03-31T23:12:39.458Z,1010.870
2017-03-31T23:15:45.282Z,1010.888
2017-03-31T23:18:50.866Z,1010.906
2017-03-31T23:22:02.767Z,1010.885
2017-03-31T23:25:01.651Z,1010.900
2017-03-31T23:31:13.553Z,1010.871
2017-03-31T23:34:19.367Z,1010.897
2017-03-31T23:37:25.022Z,1010.924
2017-03-31T23:40:30.706Z,1010.898
2017-03-31T23:43:36.457Z,1010.904
2017-03-31T23:46:42.029Z,1010.866
2017-03-31T23:49:47.705Z,1010.884
2017-03-31T23:55:59.317Z,1010.927
2017-03-31T23:59:04.820Z,1010.929
